Andover, Pennsylvania
Current Conditions -  °F | °C
As of 12:53 PM on Saturday 20 Dec 2014 (Local Time) from KHGR Reporting Station
Clear Clear  
Wind Chill:   Ceiling: Unl
Heat Index:   Visibility: 10mi
Dew Point: -6°   Wind: 3mph
Humidity: 61%   Direction: 280°W
Pressure: 30.25"   Gusts: NA
Location:  39.973°N, 77.9661°W
Report Text: KHGR 201753Z 28003KT 10SM CLR 01/M06 A3025 RMK AO2 SLP262 T00061061 10006 21044 58016
Loading
Personal Weather Stations






























Interactive Weather Map New forecast layout! Learn more

10-Day Weather Forecast

Advertisements
Track Severe Weather on mobile